sensor_id;sensor_type;location;lat;lon;timestamp;pressure;altitude;pressure_sealevel;temperature;humidity
15880;BME280;61999;51.514;14.614;2023-02-11T00:01:24;101571.19;;;-7.50;71.33
15880;BME280;61999;51.514;14.614;2023-02-11T00:03:53;101572.84;;;-7.52;70.90
15880;BME280;61999;51.514;14.614;2023-02-11T00:06:22;101566.16;;;-7.45;71.21
15880;BME280;61999;51.514;14.614;2023-02-11T00:08:50;101564.41;;;-7.48;71.57
15880;BME280;61999;51.514;14.614;2023-02-11T00:11:21;101560.28;;;-7.41;71.05
15880;BME280;61999;51.514;14.614;2023-02-11T00:13:51;101553.16;;;-7.55;70.92
15880;BME280;61999;51.514;14.614;2023-02-11T00:16:20;101550.28;;;-7.27;70.67
15880;BME280;61999;51.514;14.614;2023-02-11T00:18:48;101539.88;;;-7.35;71.24
15880;BME280;61999;51.514;14.614;2023-02-11T00:21:21;101535.28;;;-7.53;71.31
15880;BME280;61999;51.514;14.614;2023-02-11T00:23:50;101526.81;;;-7.49;71.02
15880;BME280;61999;51.514;14.614;2023-02-11T00:26:21;101517.31;;;-7.55;71.14
15880;BME280;61999;51.514;14.614;2023-02-11T00:28:50;101503.59;;;-7.13;71.42
15880;BME280;61999;51.514;14.614;2023-02-11T00:31:22;101500.41;;;-7.46;71.06
15880;BME280;61999;51.514;14.614;2023-02-11T00:33:51;101507.28;;;-7.44;71.92
15880;BME280;61999;51.514;14.614;2023-02-11T00:36:21;101499.91;;;-7.27;71.13
15880;BME280;61999;51.514;14.614;2023-02-11T00:38:51;101498.91;;;-7.35;70.92
15880;BME280;61999;51.514;14.614;2023-02-11T00:41:20;101496.94;;;-7.01;70.54
15880;BME280;61999;51.514;14.614;2023-02-11T00:43:49;101493.34;;;-7.11;69.71
15880;BME280;61999;51.514;14.614;2023-02-11T00:46:17;101492.28;;;-7.24;70.19
15880;BME280;61999;51.514;14.614;2023-02-11T00:48:46;101493.13;;;-7.25;71.00
15880;BME280;61999;51.514;14.614;2023-02-11T00:51:14;101486.41;;;-7.18;70.54
15880;BME280;61999;51.514;14.614;2023-02-11T00:53:42;101479.75;;;-7.07;70.35
15880;BME280;61999;51.514;14.614;2023-02-11T00:56:10;101472.59;;;-7.26;70.57
15880;BME280;61999;51.514;14.614;2023-02-11T00:58:38;101471.63;;;-7.33;71.20
15880;BME280;61999;51.514;14.614;2023-02-11T01:01:06;101463.09;;;-7.32;71.43
15880;BME280;61999;51.514;14.614;2023-02-11T01:03:34;101483.31;;;-7.47;71.80
15880;BME280;61999;51.514;14.614;2023-02-11T01:06:04;101467.16;;;-7.45;71.59
15880;BME280;61999;51.514;14.614;2023-02-11T01:08:32;101462.16;;;-7.37;71.69
15880;BME280;61999;51.514;14.614;2023-02-11T01:11:04;101465.59;;;-7.37;72.13
15880;BME280;61999;51.514;14.614;2023-02-11T01:13:34;101462.94;;;-7.41;72.02
15880;BME280;61999;51.514;14.614;2023-02-11T01:16:05;101455.25;;;-7.41;71.56
15880;BME280;61999;51.514;14.614;2023-02-11T01:18:34;101456.78;;;-7.02;71.07
15880;BME280;61999;51.514;14.614;2023-02-11T01:21:04;101465.59;;;-7.35;71.49
15880;BME280;61999;51.514;14.614;2023-02-11T01:23:33;101480.72;;;-7.50;72.78
15880;BME280;61999;51.514;14.614;2023-02-11T01:26:01;101482.47;;;-7.48;73.10
15880;BME280;61999;51.514;14.614;2023-02-11T01:28:30;101480.66;;;-7.03;71.53
15880;BME280;61999;51.514;14.614;2023-02-11T01:31:00;101477.81;;;-7.20;71.73
15880;BME280;61999;51.514;14.614;2023-02-11T01:33:28;101473.56;;;-7.20;71.87
15880;BME280;61999;51.514;14.614;2023-02-11T01:36:00;101451.81;;;-6.92;70.97
15880;BME280;61999;51.514;14.614;2023-02-11T01:38:30;101447.44;;;-6.99;70.97
15880;BME280;61999;51.514;14.614;2023-02-11T01:41:00;101445.59;;;-7.06;71.42
15880;BME280;61999;51.514;14.614;2023-02-11T01:43:33;101446.38;;;-7.12;71.58
15880;BME280;61999;51.514;14.614;2023-02-11T01:46:26;101441.31;;;-7.07;71.55
15880;BME280;61999;51.514;14.614;2023-02-11T01:49:00;101438.03;;;-6.98;71.34
15880;BME280;61999;51.514;14.614;2023-02-11T01:51:34;101438.00;;;-7.01;71.67
15880;BME280;61999;51.514;14.614;2023-02-11T01:54:09;101433.81;;;-6.96;71.20
15880;BME280;61999;51.514;14.614;2023-02-11T01:56:58;101427.94;;;-6.89;71.38
15880;BME280;61999;51.514;14.614;2023-02-11T01:59:53;101418.53;;;-6.89;71.60
15880;BME280;61999;51.514;14.614;2023-02-11T02:02:31;101418.41;;;-6.98;71.71
15880;BME280;61999;51.514;14.614;2023-02-11T02:05:10;101429.50;;;-6.97;71.88
15880;BME280;61999;51.514;14.614;2023-02-11T02:07:53;101423.53;;;-6.98;71.81
15880;BME280;61999;51.514;14.614;2023-02-11T02:10:27;101425.97;;;-7.06;72.02
15880;BME280;61999;51.514;14.614;2023-02-11T02:12:56;101436.47;;;-6.90;72.32
15880;BME280;61999;51.514;14.614;2023-02-11T02:15:28;101443.19;;;-6.98;71.93
15880;BME280;61999;51.514;14.614;2023-02-11T02:18:10;101418.63;;;-6.82;72.77
15880;BME280;61999;51.514;14.614;2023-02-11T02:21:19;101411.94;;;-6.73;71.99
15880;BME280;61999;51.514;14.614;2023-02-11T02:24:09;101413.31;;;-6.95;72.59
15880;BME280;61999;51.514;14.614;2023-02-11T02:27:36;101390.13;;;-7.04;73.14
15880;BME280;61999;51.514;14.614;2023-02-11T02:33:29;101391.19;;;-6.90;72.84
15880;BME280;61999;51.514;14.614;2023-02-11T02:36:11;101375.84;;;-6.88;73.42
15880;BME280;61999;51.514;14.614;2023-02-11T02:38:50;101369.78;;;-6.93;73.51
15880;BME280;61999;51.514;14.614;2023-02-11T02:41:24;101358.69;;;-6.94;73.00
15880;BME280;61999;51.514;14.614;2023-02-11T02:43:54;101354.53;;;-6.84;72.96
15880;BME280;61999;51.514;14.614;2023-02-11T02:46:25;101350.47;;;-6.67;72.70
15880;BME280;61999;51.514;14.614;2023-02-11T02:48:57;101352.03;;;-6.79;72.85
15880;BME280;61999;51.514;14.614;2023-02-11T02:51:51;101344.44;;;-6.72;73.15
15880;BME280;61999;51.514;14.614;2023-02-11T02:54:48;101342.59;;;-6.82;73.74
15880;BME280;61999;51.514;14.614;2023-02-11T02:57:29;101347.00;;;-6.72;72.98
15880;BME280;61999;51.514;14.614;2023-02-11T03:00:17;101337.56;;;-6.76;72.91
15880;BME280;61999;51.514;14.614;2023-02-11T03:03:02;101337.63;;;-6.68;72.98
15880;BME280;61999;51.514;14.614;2023-02-11T03:05:47;101319.59;;;-6.74;73.75
15880;BME280;61999;51.514;14.614;2023-02-11T03:08:24;101312.06;;;-6.64;73.29
15880;BME280;61999;51.514;14.614;2023-02-11T03:10:57;101324.31;;;-6.41;72.36
15880;BME280;61999;51.514;14.614;2023-02-11T03:13:30;101318.38;;;-6.34;71.72
15880;BME280;61999;51.514;14.614;2023-02-11T03:16:07;101325.19;;;-6.39;72.88
15880;BME280;61999;51.514;14.614;2023-02-11T03:18:40;101325.28;;;-6.28;72.45
15880;BME280;61999;51.514;14.614;2023-02-11T03:21:11;101331.41;;;-6.19;71.44
15880;BME280;61999;51.514;14.614;2023-02-11T03:23:49;101328.19;;;-5.99;70.65
15880;BME280;61999;51.514;14.614;2023-02-11T03:26:27;101326.41;;;-6.03;71.25
15880;BME280;61999;51.514;14.614;2023-02-11T03:29:02;101335.84;;;-6.02;70.54
15880;BME280;61999;51.514;14.614;2023-02-11T03:31:40;101334.88;;;-6.13;71.14
15880;BME280;61999;51.514;14.614;2023-02-11T03:34:17;101333.41;;;-5.90;71.04
15880;BME280;61999;51.514;14.614;2023-02-11T03:36:53;101328.09;;;-6.05;70.99
15880;BME280;61999;51.514;14.614;2023-02-11T03:39:28;101326.41;;;-6.05;71.67
15880;BME280;61999;51.514;14.614;2023-02-11T03:42:00;101332.41;;;-6.03;71.12
15880;BME280;61999;51.514;14.614;2023-02-11T03:44:39;101316.38;;;-5.79;71.29
15880;BME280;61999;51.514;14.614;2023-02-11T03:47:11;101293.84;;;-6.10;71.78
15880;BME280;61999;51.514;14.614;2023-02-11T03:49:44;101291.50;;;-5.84;71.58
15880;BME280;61999;51.514;14.614;2023-02-11T03:52:18;101292.34;;;-5.87;71.45
15880;BME280;61999;51.514;14.614;2023-02-11T03:54:54;101287.34;;;-5.68;71.25
15880;BME280;61999;51.514;14.614;2023-02-11T03:57:23;101290.66;;;-5.83;71.37
15880;BME280;61999;51.514;14.614;2023-02-11T03:59:53;101296.00;;;-5.57;71.16
15880;BME280;61999;51.514;14.614;2023-02-11T04:02:25;101302.75;;;-5.73;71.01
15880;BME280;61999;51.514;14.614;2023-02-11T04:04:54;101279.59;;;-5.75;71.17
15880;BME280;61999;51.514;14.614;2023-02-11T04:07:24;101288.41;;;-5.45;70.70
15880;BME280;61999;51.514;14.614;2023-02-11T04:09:52;101285.03;;;-5.39;69.67
15880;BME280;61999;51.514;14.614;2023-02-11T04:12:21;101277.31;;;-5.35;69.60
15880;BME280;61999;51.514;14.614;2023-02-11T04:14:49;101273.84;;;-5.40;70.70
15880;BME280;61999;51.514;14.614;2023-02-11T04:17:17;101280.78;;;-5.30;70.21
15880;BME280;61999;51.514;14.614;2023-02-11T04:19:45;101268.59;;;-5.58;70.35
15880;BME280;61999;51.514;14.614;2023-02-11T04:22:13;101267.75;;;-5.57;70.60
15880;BME280;61999;51.514;14.614;2023-02-11T04:24:42;101275.59;;;-5.42;70.14
15880;BME280;61999;51.514;14.614;2023-02-11T04:27:10;101280.00;;;-5.15;69.87
15880;BME280;61999;51.514;14.614;2023-02-11T04:29:38;101273.34;;;-4.79;68.78
15880;BME280;61999;51.514;14.614;2023-02-11T04:32:06;101273.97;;;-5.24;69.14
15880;BME280;61999;51.514;14.614;2023-02-11T04:34:34;101277.53;;;-4.98;68.32
15880;BME280;61999;51.514;14.614;2023-02-11T04:37:02;101268.69;;;-5.43;69.25
15880;BME280;61999;51.514;14.614;2023-02-11T04:39:30;101268.66;;;-5.51;70.80
15880;BME280;61999;51.514;14.614;2023-02-11T04:42:00;101271.28;;;-5.43;70.26
15880;BME280;61999;51.514;14.614;2023-02-11T04:44:28;101265.47;;;-5.08;69.15
15880;BME280;61999;51.514;14.614;2023-02-11T04:46:55;101286.22;;;-4.68;68.51
15880;BME280;61999;51.514;14.614;2023-02-11T04:49:24;101268.13;;;-4.99;68.62
15880;BME280;61999;51.514;14.614;2023-02-11T04:51:52;101276.69;;;-4.97;68.84
15880;BME280;61999;51.514;14.614;2023-02-11T04:54:20;101264.94;;;-4.18;67.48
15880;BME280;61999;51.514;14.614;2023-02-11T04:56:48;101273.41;;;-4.61;67.43
15880;BME280;61999;51.514;14.614;2023-02-11T04:59:18;101267.44;;;-4.49;68.32
15880;BME280;61999;51.514;14.614;2023-02-11T05:01:45;101278.53;;;-4.67;68.12
15880;BME280;61999;51.514;14.614;2023-02-11T05:04:13;101286.97;;;-4.94;69.04
15880;BME280;61999;51.514;14.614;2023-02-11T05:06:41;101270.75;;;-4.84;70.89
15880;BME280;61999;51.514;14.614;2023-02-11T05:09:11;101283.31;;;-5.39;73.00
15880;BME280;61999;51.514;14.614;2023-02-11T05:11:39;101273.88;;;-5.37;74.88
15880;BME280;61999;51.514;14.614;2023-02-11T05:14:07;101275.00;;;-4.93;75.04
15880;BME280;61999;51.514;14.614;2023-02-11T05:16:36;101273.94;;;-5.31;74.94
15880;BME280;61999;51.514;14.614;2023-02-11T05:19:04;101273.84;;;-5.40;76.57
15880;BME280;61999;51.514;14.614;2023-02-11T05:21:33;101272.19;;;-5.32;77.12
15880;BME280;61999;51.514;14.614;2023-02-11T05:24:00;101260.19;;;-5.39;76.81
15880;BME280;61999;51.514;14.614;2023-02-11T05:26:28;101265.38;;;-5.30;77.65
15880;BME280;61999;51.514;14.614;2023-02-11T05:28:56;101279.09;;;-5.26;76.33
15880;BME280;61999;51.514;14.614;2023-02-11T05:31:24;101260.19;;;-5.39;77.85
15880;BME280;61999;51.514;14.614;2023-02-11T05:33:53;101260.16;;;-5.42;77.94
15880;BME280;61999;51.514;14.614;2023-02-11T05:36:21;101263.56;;;-5.43;78.76
15880;BME280;61999;51.514;14.614;2023-02-11T05:38:49;101249.75;;;-5.57;79.84
15880;BME280;61999;51.514;14.614;2023-02-11T05:41:17;101257.31;;;-5.77;81.41
15880;BME280;61999;51.514;14.614;2023-02-11T05:43:47;101242.69;;;-5.89;83.59
15880;BME280;61999;51.514;14.614;2023-02-11T05:46:16;101246.31;;;-5.62;83.98
15880;BME280;61999;51.514;14.614;2023-02-11T05:48:44;101260.84;;;-5.67;84.47
15880;BME280;61999;51.514;14.614;2023-02-11T05:51:13;101249.38;;;-6.06;86.57
15880;BME280;61999;51.514;14.614;2023-02-11T05:53:41;101239.34;;;-5.82;87.07
15880;BME280;61999;51.514;14.614;2023-02-11T05:56:09;101241.94;;;-5.74;87.17
15880;BME280;61999;51.514;14.614;2023-02-11T05:58:37;101249.47;;;-5.94;88.76
15880;BME280;61999;51.514;14.614;2023-02-11T06:01:05;101247.88;;;-5.80;88.86
15880;BME280;61999;51.514;14.614;2023-02-11T06:03:33;101250.44;;;-5.80;88.56
15880;BME280;61999;51.514;14.614;2023-02-11T06:06:01;101250.75;;;-5.34;88.59
15880;BME280;61999;51.514;14.614;2023-02-11T06:08:30;101245.50;;;-5.55;88.27
15880;BME280;61999;51.514;14.614;2023-02-11T06:10:58;101245.56;;;-5.43;87.43
15880;BME280;61999;51.514;14.614;2023-02-11T06:13:26;101239.53;;;-5.51;87.60
15880;BME280;61999;51.514;14.614;2023-02-11T06:15:59;101248.03;;;-5.64;87.99
15880;BME280;61999;51.514;14.614;2023-02-11T06:18:28;101229.13;;;-5.73;88.63
15880;BME280;61999;51.514;14.614;2023-02-11T06:20:56;101242.03;;;-5.63;88.78
15880;BME280;61999;51.514;14.614;2023-02-11T06:23:24;101254.69;;;-5.88;89.57
15880;BME280;61999;51.514;14.614;2023-02-11T06:26:01;101232.56;;;-5.74;89.90
15880;BME280;61999;51.514;14.614;2023-02-11T06:28:29;101231.66;;;-5.76;91.12
15880;BME280;61999;51.514;14.614;2023-02-11T06:31:02;101227.13;;;-6.07;91.86
15880;BME280;61999;51.514;14.614;2023-02-11T06:33:32;101222.94;;;-5.95;91.81
15880;BME280;61999;51.514;14.614;2023-02-11T06:36:01;101222.91;;;-6.02;91.64
15880;BME280;61999;51.514;14.614;2023-02-11T06:38:29;101223.75;;;-6.00;91.49
15880;BME280;61999;51.514;14.614;2023-02-11T06:40:58;101215.28;;;-5.93;90.17
15880;BME280;61999;51.514;14.614;2023-02-11T06:43:26;101222.06;;;-6.01;90.09
15880;BME280;61999;51.514;14.614;2023-02-11T06:45:54;101222.97;;;-5.93;90.21
15880;BME280;61999;51.514;14.614;2023-02-11T06:48:22;101229.19;;;-5.63;88.76
15880;BME280;61999;51.514;14.614;2023-02-11T06:50:50;101217.19;;;-5.64;88.25
15880;BME280;61999;51.514;14.614;2023-02-11T06:53:18;101221.47;;;-5.68;88.59
15880;BME280;61999;51.514;14.614;2023-02-11T06:55:46;101222.22;;;-5.77;88.45
15880;BME280;61999;51.514;14.614;2023-02-11T06:58:16;101218.81;;;-5.79;87.99
15880;BME280;61999;51.514;14.614;2023-02-11T07:00:43;101222.28;;;-5.72;87.82
15880;BME280;61999;51.514;14.614;2023-02-11T07:03:11;101223.38;;;-5.33;85.91
15880;BME280;61999;51.514;14.614;2023-02-11T07:05:41;101223.34;;;-5.38;85.13
15880;BME280;61999;51.514;14.614;2023-02-11T07:08:09;101222.38;;;-5.55;86.07
15880;BME280;61999;51.514;14.614;2023-02-11T07:10:37;101217.28;;;-5.51;85.57
15880;BME280;61999;51.514;14.614;2023-02-11T07:13:05;101217.31;;;-5.46;85.87
15880;BME280;61999;51.514;14.614;2023-02-11T07:15:36;101229.31;;;-5.45;84.54
15880;BME280;61999;51.514;14.614;2023-02-11T07:18:04;101233.56;;;-5.45;85.16
15880;BME280;61999;51.514;14.614;2023-02-11T07:20:31;101232.91;;;-5.15;84.31
15880;BME280;61999;51.514;14.614;2023-02-11T07:22:59;101237.91;;;-5.34;83.38
15880;BME280;61999;51.514;14.614;2023-02-11T07:25:27;101227.63;;;-5.37;84.24
15880;BME280;61999;51.514;14.614;2023-02-11T07:27:55;101222.47;;;-5.40;84.56
15880;BME280;61999;51.514;14.614;2023-02-11T07:30:23;101232.06;;;-5.13;83.46
15880;BME280;61999;51.514;14.614;2023-02-11T07:32:52;101231.91;;;-5.40;83.57
15880;BME280;61999;51.514;14.614;2023-02-11T07:35:20;101243.03;;;-5.37;84.43
15880;BME280;61999;51.514;14.614;2023-02-11T07:37:48;101249.81;;;-5.48;85.37
15880;BME280;61999;51.514;14.614;2023-02-11T07:40:16;101235.31;;;-5.44;85.76
15880;BME280;61999;51.514;14.614;2023-02-11T07:42:44;101249.81;;;-5.51;85.68
15880;BME280;61999;51.514;14.614;2023-02-11T07:45:12;101244.69;;;-5.50;85.57
15880;BME280;61999;51.514;14.614;2023-02-11T07:47:40;101252.34;;;-5.56;85.65
15880;BME280;61999;51.514;14.614;2023-02-11T07:50:10;101248.31;;;-5.18;85.33
15880;BME280;61999;51.514;14.614;2023-02-11T07:52:38;101253.47;;;-5.09;83.66
15880;BME280;61999;51.514;14.614;2023-02-11T07:55:07;101256.00;;;-5.21;83.71
15880;BME280;61999;51.514;14.614;2023-02-11T07:57:35;101253.47;;;-5.15;84.27
15880;BME280;61999;51.514;14.614;2023-02-11T08:00:05;101262.13;;;-4.95;82.59
15880;BME280;61999;51.514;14.614;2023-02-11T08:02:33;101253.59;;;-4.83;82.48
15880;BME280;61999;51.514;14.614;2023-02-11T08:05:00;101238.03;;;-5.18;83.88
15880;BME280;61999;51.514;14.614;2023-02-11T08:07:30;101235.44;;;-5.14;83.29
15880;BME280;61999;51.514;14.614;2023-02-11T08:09:58;101227.91;;;-4.75;82.59
15880;BME280;61999;51.514;14.614;2023-02-11T08:12:26;101225.25;;;-4.94;82.27
15880;BME280;61999;51.514;14.614;2023-02-11T08:14:54;101229.53;;;-4.94;81.92
15880;BME280;61999;51.514;14.614;2023-02-11T08:17:21;101223.59;;;-4.80;81.39
15880;BME280;61999;51.514;14.614;2023-02-11T08:19:49;101226.09;;;-5.01;81.84
15880;BME280;61999;51.514;14.614;2023-02-11T08:22:17;101221.75;;;-5.16;82.43
15880;BME280;61999;51.514;14.614;2023-02-11T08:24:46;101228.69;;;-4.98;81.93
15880;BME280;61999;51.514;14.614;2023-02-11T08:27:17;101226.06;;;-5.10;82.96
15880;BME280;61999;51.514;14.614;2023-02-11T08:29:45;101218.34;;;-5.13;83.03
15880;BME280;61999;51.514;14.614;2023-02-11T08:32:13;101226.97;;;-5.02;82.68
15880;BME280;61999;51.514;14.614;2023-02-11T08:34:41;101217.63;;;-4.82;81.57
15880;BME280;61999;51.514;14.614;2023-02-11T08:37:10;101216.69;;;-4.91;81.34
15880;BME280;61999;51.514;14.614;2023-02-11T08:39:38;101226.22;;;-4.76;80.53
15880;BME280;61999;51.514;14.614;2023-02-11T08:42:07;101232.06;;;-5.08;81.17
15880;BME280;61999;51.514;14.614;2023-02-11T08:44:35;101231.31;;;-4.80;81.10
15880;BME280;61999;51.514;14.614;2023-02-11T08:47:03;101230.47;;;-4.74;80.03
15880;BME280;61999;51.514;14.614;2023-02-11T08:49:31;101252.69;;;-4.96;80.73
15880;BME280;61999;51.514;14.614;2023-02-11T08:51:59;101238.19;;;-4.80;80.69
15880;BME280;61999;51.514;14.614;2023-02-11T08:54:30;101246.78;;;-4.73;79.52
15880;BME280;61999;51.514;14.614;2023-02-11T08:56:58;101216.69;;;-4.91;80.12
15880;BME280;61999;51.514;14.614;2023-02-11T08:59:29;101210.81;;;-4.61;79.67
15880;BME280;61999;51.514;14.614;2023-02-11T09:01:57;101215.94;;;-4.64;78.88
15880;BME280;61999;51.514;14.614;2023-02-11T09:04:25;101224.56;;;-4.56;78.41
15880;BME280;61999;51.514;14.614;2023-02-11T09:06:53;101226.22;;;-4.73;79.31
15880;BME280;61999;51.514;14.614;2023-02-11T09:09:20;101233.09;;;-4.57;78.35
15880;BME280;61999;51.514;14.614;2023-02-11T09:11:48;101236.56;;;-4.46;78.01
15880;BME280;61999;51.514;14.614;2023-02-11T09:14:20;101232.19;;;-4.74;78.63
15880;BME280;61999;51.514;14.614;2023-02-11T09:16:50;101221.94;;;-4.64;79.40
15880;BME280;61999;51.514;14.614;2023-02-11T09:19:19;101236.53;;;-4.61;78.59
15880;BME280;61999;51.514;14.614;2023-02-11T09:21:48;101245.13;;;-4.50;78.20
15880;BME280;61999;51.514;14.614;2023-02-11T09:24:16;101239.16;;;-4.23;77.07
15880;BME280;61999;51.514;14.614;2023-02-11T09:26:45;101226.25;;;-4.52;77.41
15880;BME280;61999;51.514;14.614;2023-02-11T09:29:13;101228.81;;;-4.58;78.46
15880;BME280;61999;51.514;14.614;2023-02-11T09:31:40;101239.19;;;-4.33;77.20
15880;BME280;61999;51.514;14.614;2023-02-11T09:34:11;101238.31;;;-4.29;77.02
15880;BME280;61999;51.514;14.614;2023-02-11T09:36:40;101231.50;;;-3.94;76.59
15880;BME280;61999;51.514;14.614;2023-02-11T09:39:12;101217.72;;;-4.29;76.78
15880;BME280;61999;51.514;14.614;2023-02-11T09:44:48;101210.91;;;-3.91;75.73
15880;BME280;61999;51.514;14.614;2023-02-11T09:47:26;101195.44;;;-3.84;74.47
15880;BME280;61999;51.514;14.614;2023-02-11T09:50:01;101210.88;;;-3.94;74.18
15880;BME280;61999;51.514;14.614;2023-02-11T09:52:38;101204.81;;;-3.51;73.73
15880;BME280;61999;51.514;14.614;2023-02-11T09:55:20;101198.00;;;-3.75;73.08
15880;BME280;61999;51.514;14.614;2023-02-11T09:57:48;101183.41;;;-3.70;74.79
15880;BME280;61999;51.514;14.614;2023-02-11T10:00:26;101203.19;;;-3.84;75.06
15880;BME280;61999;51.514;14.614;2023-02-11T10:03:37;101199.72;;;-3.83;75.17
15880;BME280;61999;51.514;14.614;2023-02-11T10:06:35;101191.97;;;-3.59;74.49
15880;BME280;61999;51.514;14.614;2023-02-11T10:09:30;101203.94;;;-3.36;74.08
15880;BME280;61999;51.514;14.614;2023-02-11T10:12:20;101213.41;;;-3.43;73.19
15880;BME280;61999;51.514;14.614;2023-02-11T10:15:12;101214.09;;;-2.90;72.04
15880;BME280;61999;51.514;14.614;2023-02-11T10:18:04;101209.13;;;-3.49;74.09
15880;BME280;61999;51.514;14.614;2023-02-11T10:20:45;101214.25;;;-3.39;73.40
15880;BME280;61999;51.514;14.614;2023-02-11T10:23:23;101222.91;;;-3.68;73.59
15880;BME280;61999;51.514;14.614;2023-02-11T10:25:53;101217.72;;;-3.47;74.07
15880;BME280;61999;51.514;14.614;2023-02-11T10:28:28;101228.88;;;-3.40;73.49
15880;BME280;61999;51.514;14.614;2023-02-11T10:31:00;101215.13;;;-3.43;73.89
15880;BME280;61999;51.514;14.614;2023-02-11T10:33:33;101209.84;;;-2.99;72.31
15880;BME280;61999;51.514;14.614;2023-02-11T10:36:05;101209.09;;;-3.38;72.52
15880;BME280;61999;51.514;14.614;2023-02-11T10:38:35;101215.94;;;-3.23;72.83
15880;BME280;61999;51.514;14.614;2023-02-11T10:41:04;101221.06;;;-3.20;72.57
15880;BME280;61999;51.514;14.614;2023-02-11T10:43:33;101208.13;;;-3.02;72.85
15880;BME280;61999;51.514;14.614;2023-02-11T10:46:04;101215.06;;;-3.17;72.46
15880;BME280;61999;51.514;14.614;2023-02-11T10:48:39;101220.22;;;-3.16;73.22
15880;BME280;61999;51.514;14.614;2023-02-11T10:51:17;101207.34;;;-3.19;72.98
15880;BME280;61999;51.514;14.614;2023-02-11T10:53:48;101207.16;;;-2.82;71.57
15880;BME280;61999;51.514;14.614;2023-02-11T10:56:24;101211.63;;;-3.13;71.76
15880;BME280;61999;51.514;14.614;2023-02-11T10:58:57;101205.59;;;-3.17;72.46
15880;BME280;61999;51.514;14.614;2023-02-11T11:01:39;101217.66;;;-3.31;73.45
15880;BME280;61999;51.514;14.614;2023-02-11T11:04:33;101210.75;;;-3.20;73.37
15880;BME280;61999;51.514;14.614;2023-02-11T11:07:15;101225.31;;;-2.99;72.25
15880;BME280;61999;51.514;14.614;2023-02-11T11:09:50;101221.03;;;-3.11;72.69
15880;BME280;61999;51.514;14.614;2023-02-11T11:12:32;101207.25;;;-2.97;72.00
15880;BME280;61999;51.514;14.614;2023-02-11T11:15:16;101221.09;;;-3.34;72.43
15880;BME280;61999;51.514;14.614;2023-02-11T11:17:45;101222.91;;;-3.59;74.29
15880;BME280;61999;51.514;14.614;2023-02-11T11:20:26;101227.19;;;-3.50;73.98
15880;BME280;61999;51.514;14.614;2023-02-11T11:23:14;101224.56;;;-3.36;73.77
15880;BME280;61999;51.514;14.614;2023-02-11T11:26:01;101228.91;;;-3.69;74.54
15880;BME280;61999;51.514;14.614;2023-02-11T11:28:35;101222.91;;;-3.62;74.94
15880;BME280;61999;51.514;14.614;2023-02-11T11:31:13;101232.28;;;-3.35;74.50
15880;BME280;61999;51.514;14.614;2023-02-11T11:33:43;101228.03;;;-3.65;75.63
15880;BME280;61999;51.514;14.614;2023-02-11T11:36:15;101234.94;;;-3.92;76.62
15880;BME280;61999;51.514;14.614;2023-02-11T11:38:49;101236.66;;;-3.69;76.55
15880;BME280;61999;51.514;14.614;2023-02-11T11:41:26;101240.94;;;-3.68;76.53
15880;BME280;61999;51.514;14.614;2023-02-11T11:44:02;101235.78;;;-3.74;76.29
15880;BME280;61999;51.514;14.614;2023-02-11T11:46:35;101226.38;;;-3.87;76.88
15880;BME280;61999;51.514;14.614;2023-02-11T11:49:19;101232.38;;;-3.90;77.97
15880;BME280;61999;51.514;14.614;2023-02-11T11:52:01;101257.28;;;-3.87;77.36
15880;BME280;61999;51.514;14.614;2023-02-11T11:54:37;101224.63;;;-3.79;77.75
15880;BME280;61999;51.514;14.614;2023-02-11T11:57:14;101237.53;;;-3.76;78.15
15880;BME280;61999;51.514;14.614;2023-02-11T11:59:44;101222.03;;;-3.53;77.15
15880;BME280;61999;51.514;14.614;2023-02-11T12:02:59;101204.84;;;-3.54;77.47
15880;BME280;61999;51.514;14.614;2023-02-11T12:05:41;101197.94;;;-3.46;75.63
15880;BME280;61999;51.514;14.614;2023-02-11T12:08:23;101197.16;;;-3.62;76.57
15880;BME280;61999;51.514;14.614;2023-02-11T12:11:09;101197.94;;;-3.43;75.61
15880;BME280;61999;51.514;14.614;2023-02-11T12:13:59;101203.16;;;-3.83;77.06
15880;BME280;61999;51.514;14.614;2023-02-11T12:16:43;101194.56;;;-3.77;77.89
15880;BME280;61999;51.514;14.614;2023-02-11T12:19:46;101186.88;;;-3.82;77.94
15880;BME280;61999;51.514;14.614;2023-02-11T12:22:34;101180.00;;;-3.84;78.29
15880;BME280;61999;51.514;14.614;2023-02-11T12:25:24;101184.28;;;-3.82;79.05
15880;BME280;61999;51.514;14.614;2023-02-11T12:28:06;101185.13;;;-3.94;79.54
15880;BME280;61999;51.514;14.614;2023-02-11T12:34:13;101215.19;;;-3.77;79.32
15880;BME280;61999;51.514;14.614;2023-02-11T12:37:02;101222.91;;;-3.86;79.97
15880;BME280;61999;51.514;14.614;2023-02-11T12:39:42;101211.72;;;-3.50;79.72
15880;BME280;61999;51.514;14.614;2023-02-11T12:42:32;101209.16;;;-3.61;79.96
15880;BME280;61999;51.514;14.614;2023-02-11T12:45:35;101201.44;;;-3.99;82.46
15880;BME280;61999;51.514;14.614;2023-02-11T12:48:21;101204.88;;;-3.88;82.67
15880;BME280;61999;51.514;14.614;2023-02-11T12:50:59;101206.59;;;-3.92;82.86
15880;BME280;61999;51.514;14.614;2023-02-11T12:53:46;101191.97;;;-3.71;83.33
15880;BME280;61999;51.514;14.614;2023-02-11T12:56:25;101195.44;;;-3.89;84.12
15880;BME280;61999;51.514;14.614;2023-02-11T12:58:58;101198.84;;;-3.61;84.93
15880;BME280;61999;51.514;14.614;2023-02-11T13:01:33;101202.31;;;-3.82;84.74
15880;BME280;61999;51.514;14.614;2023-02-11T13:04:10;101193.72;;;-4.16;87.50
15880;BME280;61999;51.514;14.614;2023-02-11T13:06:44;101185.13;;;-3.64;87.92
15880;BME280;61999;51.514;14.614;2023-02-11T13:09:20;101173.94;;;-3.59;86.15
15880;BME280;61999;51.514;14.614;2023-02-11T13:11:57;101168.81;;;-3.85;86.25
15880;BME280;61999;51.514;14.614;2023-02-11T13:14:49;101163.69;;;-3.82;87.25
15880;BME280;61999;51.514;14.614;2023-02-11T13:17:31;101149.94;;;-3.95;88.44
15880;BME280;61999;51.514;14.614;2023-02-11T13:20:20;101174.00;;;-4.02;89.06
15880;BME280;61999;51.514;14.614;2023-02-11T13:22:58;101156.81;;;-3.95;90.15